Time;durP1;ratioP1;P1;durP2;ratioP2;P2;SDS_P1;SDS_P2;PMS_P1;PMS_P2;Temp;Humidity;BMP_temperature;BMP_pressure;BME280_temperature;BME280_humidity;BME280_pressure;Samples;Min_cycle;Max_cycle;Signal;HPM_P1;HPM_P2
2023/03/21 00:01:57;;;;;;;8.80;6.63;;;;;;;;;;12960758;22;20012;-75
2023/03/21 00:06:58;;;;;;;9.70;6.50;;;;;;;;;;12936806;22;20106;-74
2023/03/21 00:12:01;;;;;;;7.80;6.03;;;;;;;;;;12967760;22;20121;-78
2023/03/21 00:17:05;;;;;;;8.63;6.18;;;;;;;;;;12966630;22;20267;-77
2023/03/21 00:22:07;;;;;;;9.52;6.03;;;;;;;;;;12961280;22;20137;-77
2023/03/21 00:27:07;;;;;;;7.35;5.28;;;;;;;;;;12959611;22;20015;-76
2023/03/21 00:32:08;;;;;;;6.50;5.22;;;;;;;;;;12935195;22;20004;-80
2023/03/21 00:37:10;;;;;;;8.07;5.50;;;;;;;;;;12958843;22;20015;-78
2023/03/21 00:42:15;;;;;;;7.05;5.50;;;;;;;;;;12961954;22;20016;-77
2023/03/21 00:47:16;;;;;;;7.53;5.57;;;;;;;;;;12961469;22;20011;-76
2023/03/21 00:52:17;;;;;;;8.77;5.88;;;;;;;;;;12961923;22;20012;-76
2023/03/21 00:57:18;;;;;;;8.77;4.85;;;;;;;;;;12961382;22;20020;-76
2023/03/21 01:02:25;;;;;;;7.53;5.72;;;;;;;;;;12961200;22;20008;-76
2023/03/21 01:07:27;;;;;;;8.57;5.68;;;;;;;;;;12940253;22;20057;-75
2023/03/21 01:12:27;;;;;;;9.80;4.97;;;;;;;;;;12966230;22;20023;-76
2023/03/21 01:17:29;;;;;;;8.20;4.82;;;;;;;;;;12938033;22;20034;-77
2023/03/21 01:22:30;;;;;;;6.45;4.93;;;;;;;;;;12938036;22;20389;-77
2023/03/21 01:27:30;;;;;;;7.60;4.88;;;;;;;;;;12965993;22;20011;-76
2023/03/21 01:32:37;;;;;;;6.23;4.53;;;;;;;;;;12912188;22;20024;-76
2023/03/21 01:37:42;;;;;;;6.07;4.53;;;;;;;;;;12963464;22;20016;-75
2023/03/21 01:42:43;;;;;;;9.02;5.22;;;;;;;;;;12936919;22;20012;-77
2023/03/21 01:47:45;;;;;;;6.32;4.53;;;;;;;;;;12964244;22;20015;-76
2023/03/21 01:52:56;;;;;;;7.65;5.20;;;;;;;;;;12936320;22;20689;-80
2023/03/21 01:58:03;;;;;;;6.32;4.63;;;;;;;;;;12934986;22;20138;-76
2023/03/21 02:03:15;;;;;;;7.68;4.57;;;;;;;;;;12937673;22;20054;-77
2023/03/21 02:08:32;;;;;;;8.30;5.05;;;;;;;;;;12942086;22;20012;-78
2023/03/21 02:13:40;;;;;;;8.75;4.50;;;;;;;;;;12945393;22;20015;-76
2023/03/21 02:19:03;;;;;;;6.78;4.38;;;;;;;;;;12928571;22;20019;-81
2023/03/21 02:24:18;;;;;;;4.50;3.97;;;;;;;;;;12941990;22;20691;-78
2023/03/21 02:29:36;;;;;;;7.00;4.30;;;;;;;;;;12958419;22;20011;-77
2023/03/21 02:34:46;;;;;;;7.57;4.55;;;;;;;;;;12928547;22;20023;-78
2023/03/21 02:40:09;;;;;;;7.00;4.78;;;;;;;;;;12955250;22;20205;-77
2023/03/21 02:45:19;;;;;;;7.45;4.45;;;;;;;;;;12928100;22;20680;-77
2023/03/21 02:50:49;;;;;;;5.97;3.75;;;;;;;;;;12948634;22;20460;-77
2023/03/21 02:56:00;;;;;;;6.20;4.35;;;;;;;;;;12953044;22;20413;-77
2023/03/21 03:01:05;;;;;;;5.97;4.35;;;;;;;;;;12952559;22;20086;-78
2023/03/21 03:06:35;;;;;;;7.25;4.75;;;;;;;;;;12948228;22;20094;-76
2023/03/21 03:11:41;;;;;;;6.18;4.57;;;;;;;;;;12932950;22;20287;-77
2023/03/21 03:16:55;;;;;;;6.57;4.47;;;;;;;;;;12925956;22;20015;-80
2023/03/21 03:22:16;;;;;;;8.20;5.13;;;;;;;;;;12923716;22;20011;-78
2023/03/21 03:27:22;;;;;;;9.68;5.68;;;;;;;;;;12898195;22;20043;-77
2023/03/21 03:32:29;;;;;;;10.63;6.00;;;;;;;;;;12928780;22;20637;-76
2023/03/21 03:37:31;;;;;;;9.82;6.07;;;;;;;;;;12887434;22;20102;-76
2023/03/21 03:42:42;;;;;;;9.93;5.88;;;;;;;;;;12904778;22;20012;-75
2023/03/21 03:48:00;;;;;;;4.97;4.43;;;;;;;;;;12929108;22;20012;-75
2023/03/21 03:53:23;;;;;;;8.52;5.22;;;;;;;;;;12908598;22;20116;-74
2023/03/21 03:58:31;;;;;;;6.45;4.95;;;;;;;;;;12910172;22;20023;-76
2023/03/21 04:03:41;;;;;;;8.88;5.18;;;;;;;;;;12926260;22;20007;-77
2023/03/21 04:08:44;;;;;;;6.15;4.90;;;;;;;;;;12925663;22;20012;-75
2023/03/21 04:13:45;;;;;;;8.77;4.93;;;;;;;;;;12930034;22;20066;-75
2023/03/21 04:18:53;;;;;;;7.85;5.25;;;;;;;;;;12935642;22;20102;-73
2023/03/21 04:23:54;;;;;;;7.60;5.22;;;;;;;;;;12962720;22;20094;-75
2023/03/21 04:28:55;;;;;;;8.02;5.65;;;;;;;;;;12962693;22;20062;-75
2023/03/21 04:34:22;;;;;;;8.10;4.88;;;;;;;;;;12912641;22;20367;-75
2023/03/21 04:39:25;;;;;;;6.25;5.10;;;;;;;;;;12929639;22;20656;-74
2023/03/21 04:44:27;;;;;;;7.68;4.43;;;;;;;;;;12929734;22;20008;-73
2023/03/21 04:49:27;;;;;;;10.57;4.70;;;;;;;;;;12905475;22;20038;-76
2023/03/21 04:54:28;;;;;;;6.18;4.50;;;;;;;;;;12930266;22;20500;-74
2023/03/21 04:59:30;;;;;;;7.60;4.50;;;;;;;;;;12958227;22;20920;-77
2023/03/21 05:04:32;;;;;;;7.57;4.55;;;;;;;;;;12963783;22;20011;-75
2023/03/21 05:09:33;;;;;;;7.18;5.05;;;;;;;;;;12936198;22;20352;-77
2023/03/21 05:14:34;;;;;;;6.85;4.85;;;;;;;;;;12935899;22;20020;-75
2023/03/21 05:19:34;;;;;;;5.75;4.80;;;;;;;;;;12965376;22;20099;-74
2023/03/21 05:24:38;;;;;;;6.47;4.90;;;;;;;;;;12913188;22;20460;-75
2023/03/21 05:29:41;;;;;;;7.18;5.75;;;;;;;;;;12957225;22;20121;-75
2023/03/21 05:34:44;;;;;;;8.35;5.50;;;;;;;;;;12938252;22;20711;-76
2023/03/21 05:39:46;;;;;;;10.38;5.85;;;;;;;;;;12964735;22;20353;-76
2023/03/21 05:44:54;;;;;;;7.78;5.72;;;;;;;;;;12935871;22;20356;-76
2023/03/21 05:50:03;;;;;;;7.88;6.18;;;;;;;;;;12938936;22;20074;-78
2023/03/21 05:55:06;;;;;;;8.98;6.13;;;;;;;;;;12937642;22;20016;-74
2023/03/21 06:00:07;;;;;;;9.77;5.45;;;;;;;;;;12938594;22;20028;-75
2023/03/21 06:05:17;;;;;;;6.82;5.45;;;;;;;;;;12940430;22;20521;-76
2023/03/21 06:10:17;;;;;;;8.07;5.20;;;;;;;;;;12963974;22;20094;-74
2023/03/21 06:15:23;;;;;;;10.77;5.95;;;;;;;;;;12911025;22;20126;-73
2023/03/21 06:20:28;;;;;;;7.00;5.10;;;;;;;;;;12909920;22;20021;-79
2023/03/21 06:25:36;;;;;;;6.90;5.45;;;;;;;;;;12906818;22;20018;-75
2023/03/21 06:30:37;;;;;;;7.53;5.80;;;;;;;;;;12929732;22;20008;-74
2023/03/21 06:35:50;;;;;;;8.68;5.60;;;;;;;;;;12930093;22;20061;-76
2023/03/21 06:40:52;;;;;;;8.18;5.45;;;;;;;;;;12926826;22;20069;-75
2023/03/21 06:45:55;;;;;;;13.52;6.35;;;;;;;;;;12931581;22;20012;-76
2023/03/21 06:50:56;;;;;;;6.32;4.78;;;;;;;;;;12968308;22;20019;-77
2023/03/21 06:55:58;;;;;;;8.63;5.50;;;;;;;;;;12920087;22;20023;-78
2023/03/21 07:01:00;;;;;;;11.25;5.80;;;;;;;;;;12945594;22;20102;-80
2023/03/21 07:06:06;;;;;;;8.30;5.57;;;;;;;;;;12960935;22;20066;-79
2023/03/21 07:11:07;;;;;;;8.52;5.10;;;;;;;;;;12907559;22;20023;-76
2023/03/21 07:16:08;;;;;;;8.30;5.53;;;;;;;;;;12958402;22;20034;-76
2023/03/21 07:21:09;;;;;;;9.93;5.38;;;;;;;;;;12931661;22;20100;-76
2023/03/21 07:26:14;;;;;;;8.93;6.00;;;;;;;;;;12926886;22;20021;-76
2023/03/21 07:31:16;;;;;;;;;;;;;;;;;;12958720;22;20027;-75
2023/03/21 07:36:16;;;;;;;8.15;5.60;;;;;;;;;;12964078;22;19947;-77
2023/03/21 07:41:19;;;;;;;10.82;5.18;;;;;;;;;;12966192;22;20030;-75
2023/03/21 07:46:24;;;;;;;6.53;4.78;;;;;;;;;;12915002;22;20517;-74
2023/03/21 07:51:25;;;;;;;9.68;5.65;;;;;;;;;;12966125;22;20439;-77
2023/03/21 07:56:28;;;;;;;;;;;;;;;;;;12965459;22;20008;-75
2023/03/21 08:01:29;;;;;;;8.32;5.35;;;;;;;;;;12960128;22;20108;-78
2023/03/21 08:06:32;;;;;;;5.85;4.97;;;;;;;;;;12962844;22;20012;-74
2023/03/21 08:11:33;;;;;;;7.10;5.43;;;;;;;;;;12960214;22;20332;-76
2023/03/21 08:16:35;;;;;;;7.03;5.40;;;;;;;;;;12930926;22;20863;-75
2023/03/21 08:21:38;;;;;;;7.57;4.75;;;;;;;;;;12909425;22;20062;-76
2023/03/21 08:26:38;;;;;;;7.88;5.50;;;;;;;;;;12935497;22;20775;-77
2023/03/21 08:31:40;;;;;;;7.25;5.38;;;;;;;;;;12965224;22;20035;-76
2023/03/21 08:36:40;;;;;;;7.90;4.47;;;;;;;;;;12963109;22;20070;-77
2023/03/21 08:41:42;;;;;;;6.78;4.78;;;;;;;;;;12960848;22;20034;-78
2023/03/21 08:46:45;;;;;;;8.48;5.10;;;;;;;;;;12938043;22;20016;-77
2023/03/21 08:51:46;;;;;;;;;;;;;;;;;;12939524;22;20435;-76
2023/03/21 08:56:46;;;;;;;8.65;4.47;;;;;;;;;;12968514;22;19911;-75
2023/03/21 09:01:49;;;;;;;6.72;4.53;;;;;;;;;;12963819;22;20019;-76
2023/03/21 09:06:49;;;;;;;7.22;4.70;;;;;;;;;;12961851;22;20614;-78
2023/03/21 09:11:50;;;;;;;8.38;4.90;;;;;;;;;;12934276;22;20016;-78
2023/03/21 09:16:52;;;;;;;7.25;4.78;;;;;;;;;;12934754;22;20099;-76
2023/03/21 09:21:54;;;;;;;7.43;4.47;;;;;;;;;;12958598;22;20111;-76
2023/03/21 09:27:00;;;;;;;6.05;4.70;;;;;;;;;;12905870;22;20004;-79
2023/03/21 09:32:05;;;;;;;6.25;4.60;;;;;;;;;;12957082;22;20170;-77
2023/03/21 09:37:12;;;;;;;6.68;4.05;;;;;;;;;;12928860;22;20012;-74
2023/03/21 09:42:23;;;;;;;9.57;5.22;;;;;;;;;;12903488;22;20495;-76
2023/03/21 09:47:27;;;;;;;8.18;4.72;;;;;;;;;;12929298;22;20604;-75
2023/03/21 09:52:36;;;;;;;6.03;4.10;;;;;;;;;;12928374;22;20012;-76
2023/03/21 09:57:39;;;;;;;5.47;3.97;;;;;;;;;;12924757;22;20023;-76
2023/03/21 10:02:46;;;;;;;6.13;4.32;;;;;;;;;;12928496;22;20487;-79
2023/03/21 10:07:55;;;;;;;4.93;3.00;;;;;;;;;;12963911;22;20008;-75
2023/03/21 10:12:57;;;;;;;5.00;3.30;;;;;;;;;;12939112;22;20020;-77
2023/03/21 10:18:00;;;;;;;6.20;3.40;;;;;;;;;;12937699;22;20104;-77
2023/03/21 10:23:11;;;;;;;6.18;3.20;;;;;;;;;;12935865;22;20008;-75
2023/03/21 10:28:17;;;;;;;4.18;2.80;;;;;;;;;;12964565;22;20023;-79
2023/03/21 10:33:21;;;;;;;6.30;2.85;;;;;;;;;;12963487;22;20039;-76
2023/03/21 10:38:22;;;;;;;5.93;3.50;;;;;;;;;;12911661;22;20572;-77
2023/03/21 10:43:33;;;;;;;6.28;3.10;;;;;;;;;;12963796;22;20023;-74
2023/03/21 10:48:35;;;;;;;5.68;3.28;;;;;;;;;;12950050;22;20018;-77
2023/03/21 10:53:40;;;;;;;5.30;3.13;;;;;;;;;;12912219;22;20012;-77
2023/03/21 10:58:48;;;;;;;4.78;3.17;;;;;;;;;;12966003;22;20107;-76
2023/03/21 11:03:54;;;;;;;5.72;3.30;;;;;;;;;;12937494;22;20066;-76
2023/03/21 11:09:07;;;;;;;3.67;3.35;;;;;;;;;;12966077;22;20034;-77
2023/03/21 11:14:25;;;;;;;6.72;4.10;;;;;;;;;;12971560;22;20020;-77
2023/03/21 11:19:31;;;;;;;4.45;3.45;;;;;;;;;;12949750;22;20026;-79
2023/03/21 11:24:32;;;;;;;8.55;4.20;;;;;;;;;;12962617;22;20016;-77
2023/03/21 11:29:38;;;;;;;4.88;4.25;;;;;;;;;;12985765;22;20027;-77
2023/03/21 11:34:56;;;;;;;5.53;3.67;;;;;;;;;;12947502;22;20020;-77
2023/03/21 11:40:08;;;;;;;5.60;3.67;;;;;;;;;;12879321;22;20102;-76
2023/03/21 11:45:13;;;;;;;5.60;3.70;;;;;;;;;;12966718;22;20008;-76
2023/03/21 11:50:18;;;;;;;5.55;3.95;;;;;;;;;;12913212;22;20678;-76
2023/03/21 11:55:21;;;;;;;4.97;4.45;;;;;;;;;;12935264;22;20015;-78
2023/03/21 12:00:25;;;;;;;6.22;4.45;;;;;;;;;;12912453;22;20452;-79
2023/03/21 12:05:28;;;;;;;5.68;4.45;;;;;;;;;;12963993;22;20014;-78
2023/03/21 12:10:32;;;;;;;6.03;4.70;;;;;;;;;;12937359;22;20678;-77
2023/03/21 12:15:41;;;;;;;6.82;4.93;;;;;;;;;;12965800;22;20038;-77
2023/03/21 12:20:51;;;;;;;6.18;4.40;;;;;;;;;;12941429;22;20018;-80
2023/03/21 12:26:10;;;;;;;6.93;5.20;;;;;;;;;;12937566;22;20011;-78
2023/03/21 12:31:25;;;;;;;5.18;4.22;;;;;;;;;;12935132;22;20090;-79
2023/03/21 12:36:53;;;;;;;5.45;4.43;;;;;;;;;;12960041;22;20074;-79
2023/03/21 12:42:08;;;;;;;6.50;4.78;;;;;;;;;;12827586;22;20012;-79
2023/03/21 12:47:30;;;;;;;6.85;4.30;;;;;;;;;;12980300;22;20012;-82
2023/03/21 12:52:46;;;;;;;7.75;4.07;;;;;;;;;;13016021;22;20004;-80
2023/03/21 12:57:54;;;;;;;5.07;4.20;;;;;;;;;;12945191;22;20310;-79
2023/03/21 13:03:01;;;;;;;5.50;3.83;;;;;;;;;;12939058;22;20297;-79
2023/03/21 13:08:24;;;;;;;5.13;4.30;;;;;;;;;;12942951;22;20015;-81
2023/03/21 13:13:43;;;;;;;4.97;4.05;;;;;;;;;;12969441;22;20016;-80
2023/03/21 13:18:46;;;;;;;5.65;4.20;;;;;;;;;;12971143;22;20023;-80
2023/03/21 13:24:01;;;;;;;4.20;3.80;;;;;;;;;;12968928;22;20015;-80
2023/03/21 13:29:21;;;;;;;4.85;3.33;;;;;;;;;;12969900;22;20861;-80
2023/03/21 13:34:24;;;;;;;4.65;3.22;;;;;;;;;;12968522;22;20023;-82
2023/03/21 13:39:55;;;;;;;3.25;2.90;;;;;;;;;;12945777;22;20023;-81
2023/03/21 13:45:01;;;;;;;3.40;2.80;;;;;;;;;;12980726;22;20016;-80
2023/03/21 13:50:26;;;;;;;3.10;2.50;;;;;;;;;;12972999;22;20016;-81
2023/03/21 13:55:40;;;;;;;3.88;2.70;;;;;;;;;;12948221;22;20012;-79
2023/03/21 14:01:24;;;;;;;3.10;2.25;;;;;;;;;;12968337;22;20126;-79
2023/03/21 14:06:56;;;;;;;2.88;2.42;;;;;;;;;;12947157;22;20065;-79
2023/03/21 14:11:57;;;;;;;4.60;2.92;;;;;;;;;;12940742;22;20019;-79
2023/03/21 14:16:59;;;;;;;3.60;2.50;;;;;;;;;;12942847;22;20022;-79
2023/03/21 14:22:01;;;;;;;3.53;2.90;;;;;;;;;;12941965;22;20055;-80
2023/03/21 14:27:04;;;;;;;3.35;2.83;;;;;;;;;;12940100;22;20046;-78
2023/03/21 14:32:05;;;;;;;;;;;;;;;;;;12940963;22;20030;-80
2023/03/21 14:37:08;;;;;;;3.83;2.70;;;;;;;;;;12969533;22;19922;-79
2023/03/21 14:42:12;;;;;;;5.85;3.40;;;;;;;;;;12958973;22;20022;-79
2023/03/21 14:47:20;;;;;;;4.43;3.15;;;;;;;;;;12970723;22;20099;-77
2023/03/21 14:52:26;;;;;;;3.50;2.65;;;;;;;;;;12964721;22;20042;-79
2023/03/21 14:57:30;;;;;;;2.50;2.30;;;;;;;;;;12966567;22;20012;-78
2023/03/21 15:02:35;;;;;;;3.17;2.40;;;;;;;;;;13030621;22;20027;-77
2023/03/21 15:07:37;;;;;;;4.03;3.45;;;;;;;;;;12919434;22;20064;-78
2023/03/21 15:12:48;;;;;;;4.28;2.97;;;;;;;;;;12783614;23;20071;-78
2023/03/21 15:17:55;;;;;;;2.78;2.22;;;;;;;;;;12785657;23;20059;-78
2023/03/21 15:23:02;;;;;;;3.08;2.55;;;;;;;;;;12778653;23;20378;-75
2023/03/21 15:28:02;;;;;;;2.83;2.45;;;;;;;;;;12744981;23;20040;-76
2023/03/21 15:33:06;;;;;;;3.95;3.00;;;;;;;;;;12750812;23;20016;-77
2023/03/21 15:38:20;;;;;;;4.32;2.63;;;;;;;;;;12775196;23;20079;-77
2023/03/21 15:43:26;;;;;;;5.65;3.22;;;;;;;;;;12776550;23;20028;-76
2023/03/21 15:48:28;;;;;;;3.08;2.83;;;;;;;;;;12768855;23;20043;-77
2023/03/21 15:53:31;;;;;;;5.25;3.45;;;;;;;;;;12777734;23;20044;-78
2023/03/21 15:58:34;;;;;;;4.97;2.55;;;;;;;;;;12747068;23;20032;-75
2023/03/21 16:03:36;;;;;;;6.40;3.30;;;;;;;;;;12775936;23;20025;-78
2023/03/21 16:08:43;;;;;;;5.93;3.78;;;;;;;;;;12867167;23;20043;-76
2023/03/21 16:13:47;;;;;;;6.82;3.80;;;;;;;;;;12873726;23;20070;-75
2023/03/21 16:18:48;;;;;;;4.85;4.07;;;;;;;;;;12899432;23;20012;-75
2023/03/21 16:23:49;;;;;;;6.65;3.90;;;;;;;;;;12900463;23;20012;-77
2023/03/21 16:28:49;;;;;;;7.40;5.22;;;;;;;;;;12879251;23;20016;-78
2023/03/21 16:33:51;;;;;;;7.97;5.95;;;;;;;;;;12906191;23;20508;-80
2023/03/21 16:38:53;;;;;;;9.70;5.10;;;;;;;;;;12904481;23;20425;-80
2023/03/21 16:43:53;;;;;;;6.30;4.72;;;;;;;;;;12904588;23;20016;-78
2023/03/21 16:48:56;;;;;;;5.47;4.20;;;;;;;;;;12880588;23;20012;-78
2023/03/21 16:53:59;;;;;;;7.50;4.72;;;;;;;;;;12880743;23;20012;-77
2023/03/21 16:59:01;;;;;;;8.97;5.07;;;;;;;;;;12878163;23;20059;-77
2023/03/21 17:04:03;;;;;;;5.70;3.97;;;;;;;;;;12908818;23;20124;-78
2023/03/21 17:09:07;;;;;;;8.43;4.38;;;;;;;;;;12926099;23;20040;-77
2023/03/21 17:14:11;;;;;;;5.43;3.83;;;;;;;;;;12890233;23;20020;-79
2023/03/21 17:19:13;;;;;;;5.50;4.03;;;;;;;;;;12883945;23;20024;-79
2023/03/21 17:24:15;;;;;;;;;;;;;;;;;;12863564;23;20024;-80
2023/03/21 17:29:18;;;;;;;7.18;4.25;;;;;;;;;;12892440;23;20004;-80
2023/03/21 17:34:20;;;;;;;5.85;4.05;;;;;;;;;;12912977;23;20011;-81
2023/03/21 17:39:31;;;;;;;4.88;4.32;;;;;;;;;;12901153;23;20020;-78
2023/03/21 17:44:34;;;;;;;10.43;5.28;;;;;;;;;;12876763;23;20453;-76
2023/03/21 17:49:35;;;;;;;8.43;5.03;;;;;;;;;;12937843;23;20012;-79
2023/03/21 17:54:35;;;;;;;6.43;4.60;;;;;;;;;;12904517;23;20020;-76
2023/03/21 17:59:36;;;;;;;6.40;4.55;;;;;;;;;;12900833;23;20020;-75
2023/03/21 18:04:38;;;;;;;7.18;4.65;;;;;;;;;;12900528;23;20059;-75
2023/03/21 18:09:38;;;;;;;7.20;5.43;;;;;;;;;;12872672;22;20599;-78
2023/03/21 18:14:38;;;;;;;7.03;5.33;;;;;;;;;;12900676;23;20104;-75
2023/03/21 18:19:39;;;;;;;7.20;5.05;;;;;;;;;;12900836;23;20275;-77
2023/03/21 18:24:39;;;;;;;6.40;5.00;;;;;;;;;;12899499;23;20039;-76
2023/03/21 18:29:41;;;;;;;6.50;5.00;;;;;;;;;;12903142;22;20235;-78
2023/03/21 18:34:41;;;;;;;7.63;4.88;;;;;;;;;;12901627;22;20578;-76
2023/03/21 18:39:44;;;;;;;7.53;4.95;;;;;;;;;;12848056;23;20054;-77
2023/03/21 18:44:46;;;;;;;6.13;4.30;;;;;;;;;;12906635;22;20032;-77
2023/03/21 18:49:46;;;;;;;5.73;4.43;;;;;;;;;;12912283;22;20016;-77
2023/03/21 18:54:48;;;;;;;6.72;5.18;;;;;;;;;;12907995;23;20012;-77
2023/03/21 18:59:48;;;;;;;7.13;4.60;;;;;;;;;;12905247;22;20188;-77
2023/03/21 19:04:49;;;;;;;7.03;5.38;;;;;;;;;;12909429;23;20012;-78
2023/03/21 19:09:50;;;;;;;8.23;5.43;;;;;;;;;;12908805;23;20112;-81
2023/03/21 19:14:50;;;;;;;6.30;4.93;;;;;;;;;;12911043;23;20014;-79
2023/03/21 19:19:52;;;;;;;8.90;5.90;;;;;;;;;;12886229;23;20111;-79
2023/03/21 19:24:54;;;;;;;9.23;5.35;;;;;;;;;;12907778;23;20023;-79
2023/03/21 19:29:56;;;;;;;9.40;5.53;;;;;;;;;;12901057;23;20004;-78
2023/03/21 19:34:56;;;;;;;10.43;5.47;;;;;;;;;;12876437;23;20020;-77
2023/03/21 19:39:56;;;;;;;6.53;4.70;;;;;;;;;;12901071;22;20020;-76
2023/03/21 19:44:57;;;;;;;6.85;5.03;;;;;;;;;;12875149;23;21003;-77
2023/03/21 19:50:00;;;;;;;6.05;4.72;;;;;;;;;;12902978;23;20012;-77
2023/03/21 19:55:01;;;;;;;8.30;5.85;;;;;;;;;;12901750;23;20035;-79
2023/03/21 20:00:02;;;;;;;8.80;6.05;;;;;;;;;;12850325;23;20033;-78
2023/03/21 20:05:05;;;;;;;6.90;6.03;;;;;;;;;;12906472;22;20111;-78
2023/03/21 20:10:07;;;;;;;9.35;7.22;;;;;;;;;;12904664;23;20079;-76
2023/03/21 20:15:08;;;;;;;9.15;6.70;;;;;;;;;;12904609;23;20023;-77
2023/03/21 20:20:14;;;;;;;7.60;6.22;;;;;;;;;;12879040;23;20471;-76
2023/03/21 20:25:15;;;;;;;8.07;5.70;;;;;;;;;;12907541;23;20806;-81
2023/03/21 20:30:17;;;;;;;8.68;6.90;;;;;;;;;;12877919;23;20016;-77
2023/03/21 20:35:18;;;;;;;8.47;7.03;;;;;;;;;;12871940;23;20437;-79
2023/03/21 20:40:19;;;;;;;11.45;7.60;;;;;;;;;;12869843;23;20028;-77
2023/03/21 20:45:20;;;;;;;11.15;8.02;;;;;;;;;;12894263;23;20449;-78
2023/03/21 20:50:20;;;;;;;11.57;7.63;;;;;;;;;;12897794;23;20087;-79
2023/03/21 20:55:20;;;;;;;11.95;9.15;;;;;;;;;;12894209;23;20019;-77
2023/03/21 21:00:21;;;;;;;13.90;10.55;;;;;;;;;;12901072;23;20121;-76
2023/03/21 21:05:21;;;;;;;12.90;9.52;;;;;;;;;;12872457;23;20061;-76
2023/03/21 21:10:22;;;;;;;14.15;9.73;;;;;;;;;;12904572;23;20016;-77
2023/03/21 21:15:22;;;;;;;13.68;9.52;;;;;;;;;;12903807;23;20008;-78
2023/03/21 21:20:23;;;;;;;11.52;8.95;;;;;;;;;;12907384;23;20500;-77
2023/03/21 21:25:24;;;;;;;13.02;9.55;;;;;;;;;;12898003;23;20046;-76
2023/03/21 21:30:28;;;;;;;;;;;;;;;;;;12897849;23;20008;-75
2023/03/21 21:35:28;;;;;;;11.43;9.00;;;;;;;;;;12898017;23;19943;-76
2023/03/21 21:40:29;;;;;;;12.52;9.52;;;;;;;;;;12893121;23;20052;-75
2023/03/21 21:45:29;;;;;;;12.53;9.77;;;;;;;;;;12892279;23;20593;-76
2023/03/21 21:50:30;;;;;;;13.25;9.65;;;;;;;;;;12893055;23;20635;-77
2023/03/21 21:55:31;;;;;;;10.85;9.02;;;;;;;;;;12865187;23;20054;-80
2023/03/21 22:00:32;;;;;;;11.48;9.20;;;;;;;;;;12891171;23;20448;-79
2023/03/21 22:05:33;;;;;;;14.27;10.20;;;;;;;;;;12893816;23;20102;-80
2023/03/21 22:10:33;;;;;;;14.13;9.83;;;;;;;;;;12892190;23;20122;-78
2023/03/21 22:15:34;;;;;;;14.90;10.10;;;;;;;;;;12847088;23;20255;-77
2023/03/21 22:20:34;;;;;;;13.57;9.65;;;;;;;;;;12874100;23;20620;-76
2023/03/21 22:25:35;;;;;;;14.88;10.32;;;;;;;;;;12852053;23;20768;-77
2023/03/21 22:30:37;;;;;;;13.48;10.07;;;;;;;;;;12906475;23;20020;-76
2023/03/21 22:35:37;;;;;;;11.93;9.52;;;;;;;;;;12902525;23;20167;-77
2023/03/21 22:40:38;;;;;;;14.47;10.00;;;;;;;;;;12874141;23;20107;-78
2023/03/21 22:45:39;;;;;;;13.18;9.50;;;;;;;;;;12903131;23;20016;-77
2023/03/21 22:50:40;;;;;;;13.35;10.23;;;;;;;;;;12901775;23;20498;-77
2023/03/21 22:55:40;;;;;;;12.57;10.02;;;;;;;;;;12901459;23;20079;-77
2023/03/21 23:00:41;;;;;;;13.02;9.30;;;;;;;;;;12874028;23;20803;-76
2023/03/21 23:05:41;;;;;;;12.30;9.07;;;;;;;;;;12901580;23;20008;-75
2023/03/21 23:10:44;;;;;;;13.77;8.50;;;;;;;;;;12899798;23;20251;-78
2023/03/21 23:15:44;;;;;;;14.07;9.47;;;;;;;;;;12899632;23;20012;-76
2023/03/21 23:20:47;;;;;;;12.68;8.88;;;;;;;;;;12873309;22;20297;-76
2023/03/21 23:25:48;;;;;;;13.57;9.13;;;;;;;;;;12873332;23;20019;-76
2023/03/21 23:30:48;;;;;;;9.77;8.18;;;;;;;;;;12872594;22;20354;-78
2023/03/21 23:35:50;;;;;;;13.32;9.15;;;;;;;;;;12873547;23;20043;-76
2023/03/21 23:40:50;;;;;;;11.45;8.70;;;;;;;;;;12899647;23;20540;-78
2023/03/21 23:45:51;;;;;;;11.23;8.10;;;;;;;;;;12898824;22;20066;-76
2023/03/21 23:50:51;;;;;;;12.27;9.00;;;;;;;;;;12873278;23;20452;-74
2023/03/21 23:55:52;;;;;;;9.70;7.78;;;;;;;;;;12900288;23;20036;-75
